Time;durP1;ratioP1;P1;durP2;ratioP2;P2;SDS_P1;SDS_P2;PMS_P1;PMS_P2;Temp;Humidity;BMP_temperature;BMP_pressure;BME280_temperature;BME280_humidity;BME280_pressure;Samples;Min_cycle;Max_cycle;Signal;HPM_P1;HPM_P2
2022/02/15 00:02:08;;;;;;;14.43;8.80;;;;;;;;;;6186820;22;20095;-82
2022/02/15 00:04:34;;;;;;;12.35;8.43;;;;;;;;;;6210862;22;20069;-82
2022/02/15 00:06:59;;;;;;;13.50;8.63;;;;;;;;;;6186420;22;20086;-82
2022/02/15 00:09:25;;;;;;;12.23;7.85;;;;;;;;;;6186147;22;20019;-82
2022/02/15 00:11:51;;;;;;;13.80;8.50;;;;;;;;;;6209791;22;20016;-81
2022/02/15 00:14:17;;;;;;;10.90;8.35;;;;;;;;;;6185960;23;20402;-82
2022/02/15 00:16:43;;;;;;;13.43;7.43;;;;;;;;;;6185409;22;20066;-82
2022/02/15 00:19:09;;;;;;;13.27;8.02;;;;;;;;;;6184348;22;20016;-82
2022/02/15 00:21:35;;;;;;;10.27;7.25;;;;;;;;;;6186087;22;20042;-82
2022/02/15 00:24:01;;;;;;;12.32;7.50;;;;;;;;;;6209762;22;20028;-82
2022/02/15 00:26:27;;;;;;;12.15;7.45;;;;;;;;;;6188727;22;20031;-82
2022/02/15 00:28:53;;;;;;;12.90;7.82;;;;;;;;;;6185446;22;20020;-81
2022/02/15 00:31:19;;;;;;;13.15;7.85;;;;;;;;;;6187156;23;20308;-82
2022/02/15 00:33:44;;;;;;;11.73;7.45;;;;;;;;;;6183970;22;20609;-82
2022/02/15 00:36:10;;;;;;;13.57;7.80;;;;;;;;;;6208311;22;20024;-82
2022/02/15 00:38:36;;;;;;;10.75;7.47;;;;;;;;;;6184353;22;20020;-82
2022/02/15 00:41:03;;;;;;;11.13;7.53;;;;;;;;;;6209633;22;20073;-82
2022/02/15 00:43:29;;;;;;;13.13;7.20;;;;;;;;;;6185738;22;20020;-82
2022/02/15 00:45:54;;;;;;;13.75;7.75;;;;;;;;;;6183396;22;20177;-82
2022/02/15 00:48:20;;;;;;;15.18;7.70;;;;;;;;;;6209865;23;20040;-82
2022/02/15 00:50:46;;;;;;;11.55;7.85;;;;;;;;;;6235885;22;20020;-81
2022/02/15 00:53:11;;;;;;;11.45;7.57;;;;;;;;;;6184427;22;20342;-82
2022/02/15 00:55:37;;;;;;;9.73;7.47;;;;;;;;;;6186020;22;20024;-81
2022/02/15 00:58:03;;;;;;;14.20;7.40;;;;;;;;;;6185102;22;20028;-82
2022/02/15 01:00:29;;;;;;;11.80;6.88;;;;;;;;;;6186373;22;20396;-82
2022/02/15 01:02:54;;;;;;;11.50;6.78;;;;;;;;;;6185327;22;20020;-81
2022/02/15 01:05:20;;;;;;;10.40;6.90;;;;;;;;;;6209889;23;20404;-82
2022/02/15 01:07:46;;;;;;;12.05;7.35;;;;;;;;;;6186945;23;20074;-82
2022/02/15 01:10:11;;;;;;;9.95;6.82;;;;;;;;;;6209947;22;20524;-81
2022/02/15 01:12:37;;;;;;;9.40;6.80;;;;;;;;;;6185566;22;20220;-82
2022/02/15 01:15:04;;;;;;;9.32;6.63;;;;;;;;;;6185350;22;20079;-82
2022/02/15 01:17:30;;;;;;;11.38;7.13;;;;;;;;;;6184413;22;20020;-81
2022/02/15 01:19:56;;;;;;;8.93;6.43;;;;;;;;;;6213268;22;20156;-82
2022/02/15 01:22:22;;;;;;;9.30;6.47;;;;;;;;;;6187063;22;20466;-81
2022/02/15 01:24:47;;;;;;;11.20;6.80;;;;;;;;;;6187412;23;20016;-82
2022/02/15 01:27:13;;;;;;;10.40;6.45;;;;;;;;;;6187582;22;20024;-82
2022/02/15 01:29:39;;;;;;;9.32;6.25;;;;;;;;;;6187396;22;20365;-81
2022/02/15 01:32:05;;;;;;;9.45;6.90;;;;;;;;;;6213256;22;20028;-82
2022/02/15 01:34:31;;;;;;;10.68;6.72;;;;;;;;;;6186600;22;20020;-81
2022/02/15 01:36:56;;;;;;;12.25;6.78;;;;;;;;;;6186802;22;20089;-82
2022/02/15 01:39:22;;;;;;;11.02;6.40;;;;;;;;;;6187104;22;20103;-81
2022/02/15 01:41:48;;;;;;;12.10;6.63;;;;;;;;;;6187633;23;20086;-82
2022/02/15 01:44:17;;;;;;;10.80;6.55;;;;;;;;;;6238332;22;20023;-82
2022/02/15 01:46:43;;;;;;;13.18;6.93;;;;;;;;;;6237258;22;20058;-82
2022/02/15 01:49:09;;;;;;;10.45;6.57;;;;;;;;;;6210967;22;20020;-82
2022/02/15 01:51:35;;;;;;;9.45;6.13;;;;;;;;;;6211594;22;20023;-82
2022/02/15 01:54:01;;;;;;;9.07;6.28;;;;;;;;;;6186190;22;20028;-82
2022/02/15 01:56:28;;;;;;;9.60;6.30;;;;;;;;;;6211493;22;20016;-81
2022/02/15 01:58:55;;;;;;;10.00;6.30;;;;;;;;;;6186780;22;20020;-82
2022/02/15 02:01:21;;;;;;;12.38;6.50;;;;;;;;;;6187722;23;20036;-82
2022/02/15 02:03:47;;;;;;;8.75;5.57;;;;;;;;;;6186587;23;20468;-82
2022/02/15 02:06:13;;;;;;;11.50;6.35;;;;;;;;;;6212142;22;20454;-82
2022/02/15 02:08:38;;;;;;;7.88;6.13;;;;;;;;;;6187289;22;20054;-82
2022/02/15 02:11:04;;;;;;;13.23;6.40;;;;;;;;;;6187768;22;20067;-82
2022/02/15 02:13:30;;;;;;;12.13;7.13;;;;;;;;;;6212037;22;20437;-82
2022/02/15 02:15:56;;;;;;;10.00;6.25;;;;;;;;;;6187862;22;20024;-81
2022/02/15 02:18:22;;;;;;;8.55;6.35;;;;;;;;;;6211330;23;20016;-82
2022/02/15 02:20:48;;;;;;;11.40;6.47;;;;;;;;;;6185987;23;20020;-81
2022/02/15 02:23:19;;;;;;;9.13;5.78;;;;;;;;;;6185233;22;20036;-82
2022/02/15 02:25:45;;;;;;;8.77;5.95;;;;;;;;;;6211914;22;20016;-82
2022/02/15 02:28:11;;;;;;;11.85;6.40;;;;;;;;;;6186251;22;20043;-84
2022/02/15 02:30:37;;;;;;;9.68;5.85;;;;;;;;;;6186525;22;20020;-84
2022/02/15 02:33:03;;;;;;;12.05;6.28;;;;;;;;;;6187895;22;20513;-82
2022/02/15 02:35:30;;;;;;;9.18;5.78;;;;;;;;;;6188573;22;20016;-82
2022/02/15 02:37:55;;;;;;;8.48;5.57;;;;;;;;;;6213244;22;20020;-82
2022/02/15 02:40:21;;;;;;;12.88;6.25;;;;;;;;;;6186486;23;20210;-82
2022/02/15 02:42:47;;;;;;;8.45;5.55;;;;;;;;;;6188569;23;20016;-82
2022/02/15 02:45:15;;;;;;;7.55;5.68;;;;;;;;;;6212041;22;20070;-82
2022/02/15 02:47:43;;;;;;;11.63;6.18;;;;;;;;;;6188219;22;20071;-81
2022/02/15 02:50:09;;;;;;;9.75;6.40;;;;;;;;;;6188410;22;20031;-81
2022/02/15 02:52:34;;;;;;;8.77;5.68;;;;;;;;;;6213021;22;20040;-81
2022/02/15 02:55:00;;;;;;;10.80;6.22;;;;;;;;;;6211889;22;20054;-81
2022/02/15 02:57:26;;;;;;;10.55;6.55;;;;;;;;;;6185643;22;20031;-82
2022/02/15 02:59:52;;;;;;;7.63;5.75;;;;;;;;;;6212029;23;20501;-81
2022/02/15 03:02:17;;;;;;;12.38;6.13;;;;;;;;;;6186311;23;20555;-81
2022/02/15 03:04:43;;;;;;;9.20;6.38;;;;;;;;;;6183894;22;20505;-81
2022/02/15 03:07:10;;;;;;;11.60;6.63;;;;;;;;;;6186148;22;20070;-81
2022/02/15 03:09:35;;;;;;;8.60;6.07;;;;;;;;;;6186675;22;20031;-81
2022/02/15 03:12:01;;;;;;;9.63;6.35;;;;;;;;;;6185935;22;20016;-82
2022/02/15 03:14:27;;;;;;;8.95;5.63;;;;;;;;;;6185522;22;20415;-82
2022/02/15 03:16:53;;;;;;;11.18;6.03;;;;;;;;;;6211978;22;20051;-81
2022/02/15 03:19:19;;;;;;;8.50;6.47;;;;;;;;;;6209730;23;20461;-82
2022/02/15 03:21:44;;;;;;;10.88;6.25;;;;;;;;;;6210236;22;20016;-82
2022/02/15 03:24:10;;;;;;;10.68;5.90;;;;;;;;;;6186379;22;20028;-82
2022/02/15 03:26:36;;;;;;;10.35;6.00;;;;;;;;;;6210838;22;20393;-82
2022/02/15 03:29:03;;;;;;;8.07;5.85;;;;;;;;;;6209606;22;20319;-82
2022/02/15 03:31:28;;;;;;;6.68;5.38;;;;;;;;;;6182494;22;20027;-82
2022/02/15 03:33:54;;;;;;;10.23;6.38;;;;;;;;;;6185982;22;20131;-82
2022/02/15 03:36:20;;;;;;;9.05;5.68;;;;;;;;;;6209376;23;20500;-82
2022/02/15 03:38:45;;;;;;;8.63;5.80;;;;;;;;;;6186266;22;20035;-84
2022/02/15 03:43:56;;;;;;;9.60;6.15;;;;;;;;;;6216373;22;20411;-84
2022/02/15 03:46:22;;;;;;;9.52;5.93;;;;;;;;;;6186912;23;20019;-84
2022/02/15 03:48:48;;;;;;;8.75;5.60;;;;;;;;;;6185881;23;20374;-83
2022/02/15 03:51:14;;;;;;;10.23;6.05;;;;;;;;;;6186790;22;20046;-84
2022/02/15 03:53:40;;;;;;;9.82;5.80;;;;;;;;;;6212923;22;20088;-83
2022/02/15 03:56:06;;;;;;;8.98;5.32;;;;;;;;;;6211218;22;20078;-84
2022/02/15 03:58:32;;;;;;;11.82;6.13;;;;;;;;;;6185924;22;20103;-84
2022/02/15 04:00:58;;;;;;;8.85;5.82;;;;;;;;;;6187196;22;20055;-82
2022/02/15 04:03:23;;;;;;;8.88;5.00;;;;;;;;;;6211809;22;20039;-82
2022/02/15 04:05:50;;;;;;;9.15;5.85;;;;;;;;;;6186378;23;20082;-82
2022/02/15 04:08:16;;;;;;;10.50;6.03;;;;;;;;;;6211770;22;20016;-82
2022/02/15 04:10:42;;;;;;;7.57;5.68;;;;;;;;;;6186240;22;20020;-82
2022/02/15 04:13:07;;;;;;;9.90;5.13;;;;;;;;;;6186577;22;20071;-83
2022/02/15 04:15:33;;;;;;;10.95;6.00;;;;;;;;;;6186825;22;20039;-83
2022/02/15 04:17:59;;;;;;;9.95;5.65;;;;;;;;;;6211068;22;20556;-83
2022/02/15 04:20:24;;;;;;;10.45;5.25;;;;;;;;;;6186890;22;20016;-83
2022/02/15 04:22:50;;;;;;;6.68;5.47;;;;;;;;;;6236482;22;20024;-83
2022/02/15 04:25:16;;;;;;;8.52;5.45;;;;;;;;;;6211275;22;20035;-82
2022/02/15 04:27:42;;;;;;;8.43;5.28;;;;;;;;;;6185189;22;20020;-83
2022/02/15 04:30:09;;;;;;;9.40;5.82;;;;;;;;;;6211405;22;20051;-83
2022/02/15 04:32:35;;;;;;;7.63;5.18;;;;;;;;;;6185353;22;20316;-83
2022/02/15 04:35:00;;;;;;;10.80;5.55;;;;;;;;;;6185775;22;20027;-83
2022/02/15 04:37:26;;;;;;;10.63;5.90;;;;;;;;;;6185798;22;20086;-82
2022/02/15 04:39:52;;;;;;;10.50;5.25;;;;;;;;;;6186022;23;20072;-83
2022/02/15 04:42:18;;;;;;;13.77;5.65;;;;;;;;;;6185397;23;20073;-82
2022/02/15 04:44:44;;;;;;;10.00;5.20;;;;;;;;;;6185570;22;20020;-82
2022/02/15 04:47:10;;;;;;;11.77;6.00;;;;;;;;;;6185655;22;20091;-83
2022/02/15 04:49:36;;;;;;;10.00;5.20;;;;;;;;;;6182740;22;20468;-82
2022/02/15 04:52:02;;;;;;;7.25;4.88;;;;;;;;;;6186511;22;20020;-83
2022/02/15 04:54:27;;;;;;;7.10;5.28;;;;;;;;;;6185491;22;20086;-82
2022/02/15 04:56:53;;;;;;;8.43;5.10;;;;;;;;;;6210231;22;20501;-82
2022/02/15 04:59:20;;;;;;;9.35;5.43;;;;;;;;;;6185943;23;20373;-83
2022/02/15 05:01:45;;;;;;;9.48;5.22;;;;;;;;;;6185085;22;20055;-82
2022/02/15 05:04:48;;;;;;;8.90;5.47;;;;;;;;;;6184641;22;20370;-82
2022/02/15 05:07:01;;;;;;;8.20;5.97;;;;;;;;;;6215455;22;20466;-82
2022/02/15 05:09:27;;;;;;;8.25;5.35;;;;;;;;;;6186564;22;20046;-82
2022/02/15 05:11:53;;;;;;;7.75;5.00;;;;;;;;;;6208588;22;20018;-82
2022/02/15 05:14:19;;;;;;;6.97;5.20;;;;;;;;;;6183260;23;20017;-82
2022/02/15 05:16:45;;;;;;;8.55;5.15;;;;;;;;;;6184118;22;20085;-82
2022/02/15 05:19:12;;;;;;;8.27;5.55;;;;;;;;;;6185890;22;20051;-82
2022/02/15 05:21:37;;;;;;;7.20;4.50;;;;;;;;;;6210833;22;20469;-81
2022/02/15 05:24:03;;;;;;;6.82;5.18;;;;;;;;;;6185282;22;20107;-82
2022/02/15 05:26:29;;;;;;;10.93;5.95;;;;;;;;;;6185843;22;20448;-81
2022/02/15 05:28:55;;;;;;;9.23;5.60;;;;;;;;;;6211076;22;20042;-82
2022/02/15 05:31:20;;;;;;;9.55;5.90;;;;;;;;;;6186345;23;20028;-81
2022/02/15 05:33:46;;;;;;;7.47;5.30;;;;;;;;;;6210163;22;20085;-82
2022/02/15 05:36:12;;;;;;;10.57;5.13;;;;;;;;;;6210273;22;20051;-82
2022/02/15 05:38:38;;;;;;;7.82;4.78;;;;;;;;;;6184288;22;20579;-82
2022/02/15 05:41:04;;;;;;;11.85;5.68;;;;;;;;;;6209130;22;20020;-82
2022/02/15 05:43:30;;;;;;;8.38;4.80;;;;;;;;;;6184666;22;20018;-83
2022/02/15 05:45:55;;;;;;;10.10;5.13;;;;;;;;;;6210730;22;20024;-83
2022/02/15 05:48:21;;;;;;;11.00;5.63;;;;;;;;;;6234264;22;20110;-83
2022/02/15 05:50:50;;;;;;;8.93;6.15;;;;;;;;;;6182729;22;20031;-83
2022/02/15 05:53:17;;;;;;;8.40;5.20;;;;;;;;;;6184476;22;20023;-83
2022/02/15 05:55:42;;;;;;;9.23;5.43;;;;;;;;;;6184360;22;20039;-83
2022/02/15 05:58:08;;;;;;;7.13;4.95;;;;;;;;;;6207850;22;20043;-83
2022/02/15 06:00:34;;;;;;;8.43;5.50;;;;;;;;;;6184527;22;20490;-83
2022/02/15 06:02:59;;;;;;;8.65;4.93;;;;;;;;;;6186423;22;20039;-83
2022/02/15 06:05:27;;;;;;;10.07;5.43;;;;;;;;;;6209383;22;20172;-83
2022/02/15 06:07:53;;;;;;;9.25;5.60;;;;;;;;;;6212824;23;20043;-83
2022/02/15 06:10:18;;;;;;;12.07;5.40;;;;;;;;;;6185419;23;20038;-82
2022/02/15 06:12:44;;;;;;;7.35;4.90;;;;;;;;;;6186007;22;20099;-82
2022/02/15 06:15:11;;;;;;;7.72;5.70;;;;;;;;;;6186691;22;20024;-83
2022/02/15 06:17:37;;;;;;;9.73;4.80;;;;;;;;;;6211667;22;20043;-82
2022/02/15 06:20:03;;;;;;;5.97;4.57;;;;;;;;;;6211086;22;20040;-83
2022/02/15 06:22:29;;;;;;;7.00;4.13;;;;;;;;;;6210033;22;20046;-83
2022/02/15 06:24:55;;;;;;;7.68;4.97;;;;;;;;;;6212508;22;20016;-82
2022/02/15 06:27:23;;;;;;;8.10;5.25;;;;;;;;;;6186473;23;20456;-83
2022/02/15 06:29:49;;;;;;;10.70;5.00;;;;;;;;;;6212409;23;20008;-83
2022/02/15 06:32:14;;;;;;;7.43;4.57;;;;;;;;;;6215781;22;20058;-83
2022/02/15 06:34:40;;;;;;;5.80;4.55;;;;;;;;;;6188071;22;20020;-83
2022/02/15 06:37:06;;;;;;;9.73;5.28;;;;;;;;;;6213064;22;20024;-83
2022/02/15 06:39:31;;;;;;;7.00;4.80;;;;;;;;;;6212148;22;20020;-83
2022/02/15 06:41:57;;;;;;;9.40;5.72;;;;;;;;;;6185786;22;20042;-83
2022/02/15 06:44:23;;;;;;;9.95;5.25;;;;;;;;;;6211816;22;20082;-82
2022/02/15 06:46:49;;;;;;;9.45;5.35;;;;;;;;;;6191909;23;20020;-83
2022/02/15 06:49:14;;;;;;;10.00;4.70;;;;;;;;;;6211861;22;20025;-83
2022/02/15 06:51:40;;;;;;;7.13;4.60;;;;;;;;;;6237787;22;20020;-83
2022/02/15 06:54:06;;;;;;;7.63;4.70;;;;;;;;;;6187141;22;20016;-83
2022/02/15 06:56:32;;;;;;;9.55;4.70;;;;;;;;;;6212249;22;20066;-83
2022/02/15 06:58:57;;;;;;;8.75;4.72;;;;;;;;;;6188464;22;20012;-83
2022/02/15 07:01:23;;;;;;;8.15;4.70;;;;;;;;;;6186079;22;20027;-83
2022/02/15 07:03:49;;;;;;;7.88;5.28;;;;;;;;;;6213712;23;20023;-83
2022/02/15 07:06:14;;;;;;;9.93;4.95;;;;;;;;;;6188237;22;20016;-83
2022/02/15 07:08:40;;;;;;;10.93;4.80;;;;;;;;;;6211760;22;20071;-83
2022/02/15 07:11:06;;;;;;;9.68;5.25;;;;;;;;;;6187269;22;20028;-83
2022/02/15 07:13:31;;;;;;;10.75;4.68;;;;;;;;;;6213212;22;20339;-83
2022/02/15 07:15:57;;;;;;;9.88;4.80;;;;;;;;;;6188762;22;20246;-83
2022/02/15 07:18:23;;;;;;;9.80;5.10;;;;;;;;;;6188442;23;20020;-83
2022/02/15 07:20:49;;;;;;;12.32;4.90;;;;;;;;;;6189960;23;20349;-84
2022/02/15 07:23:15;;;;;;;6.88;4.47;;;;;;;;;;6187527;22;20034;-84
2022/02/15 07:25:41;;;;;;;9.45;4.95;;;;;;;;;;6213738;22;20022;-84
2022/02/15 07:28:07;;;;;;;8.32;4.80;;;;;;;;;;6188728;22;20653;-84
2022/02/15 07:30:35;;;;;;;7.97;4.82;;;;;;;;;;6212090;22;20020;-85
2022/02/15 07:33:01;;;;;;;9.13;4.50;;;;;;;;;;6214147;22;20034;-85
2022/02/15 07:35:27;;;;;;;8.05;4.65;;;;;;;;;;6187136;22;20110;-83
2022/02/15 07:37:53;;;;;;;10.07;4.78;;;;;;;;;;6188106;23;20103;-84
2022/02/15 07:40:22;;;;;;;8.93;4.25;;;;;;;;;;6187537;23;20075;-85
2022/02/15 07:42:49;;;;;;;6.05;4.47;;;;;;;;;;6214809;22;20357;-84
2022/02/15 07:45:19;;;;;;;9.07;4.40;;;;;;;;;;6188046;22;20091;-84
2022/02/15 07:47:46;;;;;;;7.05;4.38;;;;;;;;;;6214665;22;20020;-85
2022/02/15 07:50:12;;;;;;;7.78;4.70;;;;;;;;;;6187173;22;20031;-84
2022/02/15 07:52:38;;;;;;;8.57;4.47;;;;;;;;;;6212661;22;20015;-84
2022/02/15 07:55:04;;;;;;;7.07;4.20;;;;;;;;;;6187287;22;20082;-84
2022/02/15 07:57:30;;;;;;;5.78;3.92;;;;;;;;;;6213379;22;20043;-84
2022/02/15 07:59:56;;;;;;;7.30;4.65;;;;;;;;;;6212648;22;20020;-82
2022/02/15 08:02:21;;;;;;;8.23;4.60;;;;;;;;;;6186334;23;20020;-84
2022/02/15 08:04:47;;;;;;;7.53;4.35;;;;;;;;;;6213688;22;20020;-84
2022/02/15 08:07:13;;;;;;;8.50;4.88;;;;;;;;;;6187879;22;20020;-84
2022/02/15 08:09:38;;;;;;;8.50;4.57;;;;;;;;;;6236870;22;20020;-85
2022/02/15 08:12:09;;;;;;;9.07;4.88;;;;;;;;;;6213487;22;20214;-85
2022/02/15 08:14:35;;;;;;;9.57;4.63;;;;;;;;;;6187229;22;20047;-85
2022/02/15 08:17:01;;;;;;;9.00;5.55;;;;;;;;;;6209236;22;20594;-86
2022/02/15 08:19:27;;;;;;;9.90;5.20;;;;;;;;;;6176835;22;20016;-86
2022/02/15 08:21:58;;;;;;;11.20;5.32;;;;;;;;;;6213954;23;20052;-85
2022/02/15 08:24:25;;;;;;;9.45;4.60;;;;;;;;;;6187502;23;20012;-84
2022/02/15 08:26:51;;;;;;;7.15;4.38;;;;;;;;;;6188948;23;20012;-84
2022/02/15 08:29:17;;;;;;;9.68;4.90;;;;;;;;;;6187525;22;20096;-84
2022/02/15 08:31:43;;;;;;;9.15;4.82;;;;;;;;;;6213591;22;20047;-84
2022/02/15 08:34:08;;;;;;;11.23;4.50;;;;;;;;;;6187035;22;20061;-84
2022/02/15 08:36:34;;;;;;;7.80;4.10;;;;;;;;;;6211365;22;20054;-84
2022/02/15 08:39:00;;;;;;;7.47;4.28;;;;;;;;;;6211793;22;20081;-84
2022/02/15 08:41:25;;;;;;;9.70;4.15;;;;;;;;;;6211960;22;20020;-83
2022/02/15 08:43:51;;;;;;;8.27;4.18;;;;;;;;;;6213671;23;20078;-84
2022/02/15 08:46:17;;;;;;;6.95;4.45;;;;;;;;;;6212650;22;20067;-85
2022/02/15 08:48:42;;;;;;;8.00;4.15;;;;;;;;;;6214008;22;20020;-82
2022/02/15 08:51:08;;;;;;;9.45;4.40;;;;;;;;;;6213758;22;20050;-83
2022/02/15 08:53:34;;;;;;;9.23;4.35;;;;;;;;;;6210514;22;20016;-83
2022/02/15 08:56:00;;;;;;;8.00;4.18;;;;;;;;;;6234586;22;20085;-82
2022/02/15 08:58:26;;;;;;;9.32;5.00;;;;;;;;;;6183618;22;20027;-83
2022/02/15 09:00:51;;;;;;;7.50;4.47;;;;;;;;;;6187976;23;20012;-83
2022/02/15 09:03:17;;;;;;;9.85;4.00;;;;;;;;;;6187298;22;20016;-82
2022/02/15 09:05:43;;;;;;;9.18;4.22;;;;;;;;;;6186632;22;20107;-84
2022/02/15 09:08:09;;;;;;;10.05;4.78;;;;;;;;;;6211404;22;20028;-85
2022/02/15 09:10:37;;;;;;;10.63;4.40;;;;;;;;;;6213828;22;20028;-86
2022/02/15 09:13:03;;;;;;;11.50;4.38;;;;;;;;;;6214697;22;20028;-85
2022/02/15 09:15:30;;;;;;;10.77;4.32;;;;;;;;;;6189053;22;20020;-85
2022/02/15 09:17:56;;;;;;;6.78;4.30;;;;;;;;;;6189650;22;20017;-83
2022/02/15 09:20:22;;;;;;;8.38;3.83;;;;;;;;;;6185453;23;20013;-82
2022/02/15 09:22:48;;;;;;;9.05;4.15;;;;;;;;;;6186711;22;20046;-83
2022/02/15 09:25:16;;;;;;;8.65;3.45;;;;;;;;;;6213312;22;20024;-84
2022/02/15 09:27:42;;;;;;;10.30;4.43;;;;;;;;;;6214524;22;20035;-83
2022/02/15 09:30:08;;;;;;;8.60;3.83;;;;;;;;;;6187593;22;20040;-84
2022/02/15 09:32:33;;;;;;;7.70;4.10;;;;;;;;;;6187912;22;20016;-84
2022/02/15 09:34:59;;;;;;;7.15;3.78;;;;;;;;;;6188489;22;20030;-83
2022/02/15 09:37:25;;;;;;;8.70;4.18;;;;;;;;;;6186595;22;20131;-83
2022/02/15 09:39:52;;;;;;;6.65;4.47;;;;;;;;;;6188847;23;20020;-83
2022/02/15 09:42:18;;;;;;;13.27;4.10;;;;;;;;;;6216019;22;20038;-83
2022/02/15 09:44:47;;;;;;;8.38;3.53;;;;;;;;;;6189216;22;20020;-82
2022/02/15 09:47:19;;;;;;;9.80;3.60;;;;;;;;;;6189392;22;20070;-83
2022/02/15 09:49:49;;;;;;;7.32;3.65;;;;;;;;;;6165358;22;20024;-83
2022/02/15 09:52:15;;;;;;;6.32;3.92;;;;;;;;;;6214912;22;21304;-83
2022/02/15 09:54:42;;;;;;;7.60;3.00;;;;;;;;;;6185802;22;20397;-82
2022/02/15 09:57:08;;;;;;;8.10;4.10;;;;;;;;;;6188653;22;20051;-83
2022/02/15 09:59:34;;;;;;;10.25;4.05;;;;;;;;;;6189252;22;20039;-83
2022/02/15 10:02:06;;;;;;;8.07;3.70;;;;;;;;;;6189000;22;20465;-86
2022/02/15 10:04:33;;;;;;;9.77;4.07;;;;;;;;;;6188266;22;20378;-84
2022/02/15 10:07:03;;;;;;;6.13;4.00;;;;;;;;;;6189484;22;20028;-83
2022/02/15 10:09:29;;;;;;;6.90;3.78;;;;;;;;;;6190359;22;20048;-84
2022/02/15 10:12:14;;;;;;;6.93;3.92;;;;;;;;;;6187291;22;20099;-84
2022/02/15 10:14:47;;;;;;;5.68;3.10;;;;;;;;;;6213808;22;20051;-84
2022/02/15 10:17:15;;;;;;;6.72;3.08;;;;;;;;;;6165570;22;20094;-84
2022/02/15 10:19:42;;;;;;;6.28;3.63;;;;;;;;;;6178521;22;20016;-87
2022/02/15 10:22:09;;;;;;;6.13;3.50;;;;;;;;;;6189393;22;20509;-88
2022/02/15 10:24:39;;;;;;;8.50;3.47;;;;;;;;;;6188336;22;20016;-85
2022/02/15 10:27:12;;;;;;;7.18;3.38;;;;;;;;;;6176299;22;20070;-84
2022/02/15 10:29:40;;;;;;;7.13;3.50;;;;;;;;;;6172115;22;20027;-85
2022/02/15 10:32:08;;;;;;;3.47;3.00;;;;;;;;;;6186707;22;20003;-85
2022/02/15 10:34:45;;;;;;;6.35;3.00;;;;;;;;;;6189303;22;20016;-85
2022/02/15 10:37:13;;;;;;;7.22;3.13;;;;;;;;;;6188586;22;20304;-84
2022/02/15 10:39:47;;;;;;;5.13;2.95;;;;;;;;;;6189231;22;20024;-85
2022/02/15 10:42:43;;;;;;;4.55;2.50;;;;;;;;;;6199168;22;20537;-84
2022/02/15 10:45:45;;;;;;;2.70;2.50;;;;;;;;;;6201577;23;20031;-84
2022/02/15 10:59:01;;;;;;;5.82;2.50;;;;;;;;;;6025052;23;20463;-85
2022/02/15 11:05:24;;;;;;;;;;;;;;;;;;6005351;23;20215;-86
2022/02/15 11:08:35;;;;;;;4.00;1.80;;;;;;;;;;5996108;23;19913;-85
2022/02/15 11:11:57;;;;;;;;;;;;;;;;;;;;;
2022/02/15 11:19:01;;;;;;;;;;;;;;;;;;;;;
2022/02/15 11:25:10;;;;;;;4.95;2.33;;;;;;;;;;5955596;24;20020;-86
2022/02/15 11:37:48;;;;;;;2.60;2.05;;;;;;;;;;5895338;23;20039;-86
2022/02/15 11:40:34;;;;;;;4.07;2.42;;;;;;;;;;5955045;23;20114;-86
2022/02/15 11:43:04;;;;;;;2.27;2.07;;;;;;;;;;6085950;22;20098;-85
2022/02/15 11:45:30;;;;;;;6.93;2.47;;;;;;;;;;6183117;22;20251;-84
2022/02/15 11:52:01;;;;;;;;;;;;;;;;;;;;;
2022/02/15 12:17:01;;;;;;;2.90;1.90;;;;;;;;;;5674060;25;20051;-87
2022/02/15 12:24:01;;;;;;;3.85;2.13;;;;;;;;;;5720004;24;20013;-86
2022/02/15 12:26:50;;;;;;;2.22;1.70;;;;;;;;;;5780787;24;20588;-88
2022/02/15 12:29:36;;;;;;;;;;;;;;;;;;;;;
2022/02/15 12:32:07;;;;;;;2.00;1.85;;;;;;;;;;5966889;23;20094;-87
2022/02/15 12:34:34;;;;;;;1.92;1.48;;;;;;;;;;6074541;23;20028;-87
2022/02/15 12:37:02;;;;;;;3.83;2.42;;;;;;;;;;6058143;23;20479;-87
2022/02/15 12:39:38;;;;;;;3.05;2.20;;;;;;;;;;6129960;22;20074;-87
2022/02/15 12:42:22;;;;;;;2.13;1.65;;;;;;;;;;6128333;22;20478;-88
2022/02/15 12:45:25;;;;;;;4.43;1.70;;;;;;;;;;6134320;22;20017;-89
2022/02/15 12:48:32;;;;;;;;;;;;;;;;;;;;;
2022/02/15 12:51:44;;;;;;;2.42;1.75;;;;;;;;;;6177711;22;20362;-89
2022/02/15 12:54:31;;;;;;;2.13;1.73;;;;;;;;;;6161357;22;20444;-87
2022/02/15 12:57:58;;;;;;;3.83;2.38;;;;;;;;;;6209228;22;20024;-87
2022/02/15 13:00:33;;;;;;;2.60;1.90;;;;;;;;;;6163135;22;20019;-89
2022/02/15 13:03:40;;;;;;;3.80;1.88;;;;;;;;;;6165198;22;20025;-89
2022/02/15 13:07:20;;;;;;;;;;;;;;;;;;;;;
2022/02/15 13:10:21;;;;;;;2.47;2.08;;;;;;;;;;5986348;23;20954;-90
2022/02/15 13:13:33;;;;;;;2.83;2.13;;;;;;;;;;5943872;23;20338;-90
2022/02/15 13:16:39;;;;;;;2.55;2.35;;;;;;;;;;5973857;23;20047;-88
2022/02/15 13:22:55;;;;;;;3.03;2.00;;;;;;;;;;5927300;23;20071;-88
2022/02/15 15:18:55;;;;;;;11.23;5.85;;;;;;;;;;6141529;22;20248;-83
2022/02/15 15:21:27;;;;;;;11.65;5.80;;;;;;;;;;6152438;23;20521;-82
2022/02/15 15:27:25;;;;;;;9.18;5.32;;;;;;;;;;5965528;23;20034;-82
2022/02/15 15:29:54;;;;;;;9.88;5.22;;;;;;;;;;6073916;23;20343;-83
2022/02/15 15:32:27;;;;;;;8.68;5.00;;;;;;;;;;6065848;23;20165;-82
2022/02/15 15:34:53;;;;;;;8.75;5.28;;;;;;;;;;6126272;23;20481;-82
2022/02/15 15:37:33;;;;;;;9.18;5.00;;;;;;;;;;6127180;23;20373;-82
2022/02/15 15:44:29;;;;;;;8.80;5.25;;;;;;;;;;6188192;23;20075;-83
2022/02/15 15:48:03;;;;;;;9.48;4.95;;;;;;;;;;6126937;23;20527;-83
2022/02/15 15:50:25;;;;;;;9.20;5.05;;;;;;;;;;6118486;23;20025;-82
2022/02/15 15:53:17;;;;;;;9.30;5.53;;;;;;;;;;6104456;23;20049;-83
2022/02/15 16:19:19;;;;;;;8.38;5.80;;;;;;;;;;6210148;23;20431;-83
2022/02/15 16:22:29;;;;;;;10.48;6.10;;;;;;;;;;6155505;23;20024;-83
2022/02/15 16:28:44;;;;;;;9.80;6.20;;;;;;;;;;5920775;23;20120;-83
2022/02/15 16:31:16;;;;;;;12.45;6.30;;;;;;;;;;5821240;24;20025;-83
2022/02/15 16:33:52;;;;;;;10.95;6.47;;;;;;;;;;5939865;23;20020;-83
2022/02/15 16:40:45;;;;;;;9.25;6.47;;;;;;;;;;5976475;23;20769;-83
2022/02/15 16:43:11;;;;;;;13.13;7.80;;;;;;;;;;5912869;24;20029;-82
2022/02/15 16:45:37;;;;;;;9.75;7.25;;;;;;;;;;6135315;23;20076;-83
2022/02/15 17:13:17;;;;;;;;;;;;;;;;;;;;;
2022/02/15 17:20:06;;;;;;;15.05;9.07;;;;;;;;;;5772546;24;20034;-83
2022/02/15 17:49:36;;;;;;;15.50;8.63;;;;;;;;;;6189528;23;20017;-90
2022/02/15 17:52:32;;;;;;;14.48;9.10;;;;;;;;;;6116540;23;20045;-90
2022/02/15 17:55:44;;;;;;;14.70;8.65;;;;;;;;;;6107304;23;20017;-90
2022/02/15 17:58:25;;;;;;;17.02;8.93;;;;;;;;;;6142130;23;20544;-90
2022/02/15 18:01:33;;;;;;;15.02;9.00;;;;;;;;;;6074421;23;20471;-90
2022/02/15 18:04:42;;;;;;;;;;;;;;;;;;6031893;23;20021;-90
2022/02/15 18:07:50;;;;;;;13.98;8.80;;;;;;;;;;6097941;23;20246;-90
2022/02/15 18:10:41;;;;;;;13.45;7.95;;;;;;;;;;6121546;23;20402;-89
2022/02/15 18:13:46;;;;;;;15.45;8.70;;;;;;;;;;6102031;23;20028;-90
2022/02/15 18:16:39;;;;;;;;;;;;;;;;;;6124146;23;20025;-90
2022/02/15 18:19:34;;;;;;;17.27;8.35;;;;;;;;;;6125874;23;19916;-90
2022/02/15 18:22:43;;;;;;;12.25;8.13;;;;;;;;;;6038614;23;20021;-90
2022/02/15 18:26:20;;;;;;;12.88;7.05;;;;;;;;;;6180436;23;20020;-90
2022/02/15 18:29:29;;;;;;;12.73;8.32;;;;;;;;;;6034670;23;20677;-90
2022/02/15 18:32:40;;;;;;;12.10;8.20;;;;;;;;;;5991257;23;20015;-90
2022/02/15 18:36:00;;;;;;;11.10;7.30;;;;;;;;;;5974600;23;20123;-90
2022/02/15 18:39:08;;;;;;;14.43;8.87;;;;;;;;;;6048761;23;20026;-90
2022/02/15 18:42:54;;;;;;;11.68;7.78;;;;;;;;;;6105435;23;20095;-90
2022/02/15 18:45:39;;;;;;;13.32;7.43;;;;;;;;;;5968195;23;20420;-90
2022/02/15 18:48:14;;;;;;;10.45;7.25;;;;;;;;;;6102199;23;20026;-89
2022/02/15 18:50:50;;;;;;;12.63;7.95;;;;;;;;;;6131063;23;20055;-89
2022/02/15 18:53:42;;;;;;;11.85;7.28;;;;;;;;;;6125830;23;20028;-89
2022/02/15 18:56:24;;;;;;;11.50;7.90;;;;;;;;;;6062819;23;20722;-89
2022/02/15 18:59:31;;;;;;;12.35;7.85;;;;;;;;;;6128113;23;20615;-90
2022/02/15 19:02:39;;;;;;;14.32;8.23;;;;;;;;;;6097751;23;20020;-89
2022/02/15 19:05:23;;;;;;;14.05;8.25;;;;;;;;;;6126813;23;20021;-89
2022/02/15 19:08:32;;;;;;;12.73;7.60;;;;;;;;;;6106756;23;20017;-90
2022/02/15 19:11:24;;;;;;;12.38;7.28;;;;;;;;;;6071360;23;20025;-89
2022/02/15 19:14:39;;;;;;;12.05;6.80;;;;;;;;;;6088823;23;20016;-89
2022/02/15 19:17:40;;;;;;;13.65;7.57;;;;;;;;;;6089057;23;20079;-90
2022/02/15 19:20:27;;;;;;;11.85;7.18;;;;;;;;;;6155237;23;20027;-89
2022/02/15 19:23:47;;;;;;;9.70;6.88;;;;;;;;;;6096548;23;20020;-89
2022/02/15 19:26:31;;;;;;;15.88;7.72;;;;;;;;;;6107273;23;20529;-90
2022/02/15 19:29:10;;;;;;;11.25;8.18;;;;;;;;;;6055586;23;20016;-89
2022/02/15 19:32:01;;;;;;;12.20;7.63;;;;;;;;;;6120324;23;20021;-89
2022/02/15 19:35:08;;;;;;;13.82;7.95;;;;;;;;;;6115056;23;20019;-89
2022/02/15 19:37:53;;;;;;;10.05;7.60;;;;;;;;;;6083662;23;20021;-89
2022/02/15 19:40:29;;;;;;;11.50;8.30;;;;;;;;;;6120831;23;20045;-89
2022/02/15 19:43:17;;;;;;;11.60;7.50;;;;;;;;;;6118177;23;20043;-89
2022/02/15 19:45:49;;;;;;;11.73;6.93;;;;;;;;;;6145359;23;20048;-89
2022/02/15 19:48:40;;;;;;;12.98;7.95;;;;;;;;;;6069414;23;20028;-89
2022/02/15 19:52:01;;;;;;;12.30;8.32;;;;;;;;;;6041986;23;20026;-89
2022/02/15 19:54:53;;;;;;;11.30;7.53;;;;;;;;;;6060215;23;20067;-89
2022/02/15 19:57:58;;;;;;;10.35;7.55;;;;;;;;;;6066847;23;20024;-89
2022/02/15 20:01:09;;;;;;;10.32;6.78;;;;;;;;;;6135239;23;20033;-89